Time;durP1;ratioP1;P1;durP2;ratioP2;P2;SDS_P1;SDS_P2;PMS_P1;PMS_P2;Temp;Humidity;BMP_temperature;BMP_pressure;BME280_temperature;BME280_humidity;BME280_pressure;Samples;Min_cycle;Max_cycle;Signal;HPM_P1;HPM_P2
2022/10/14 00:01:48;;;;;;;12.23;10.13;;;15.50;99.90;;;;;;5053736;28;20553;-89
2022/10/14 00:04:14;;;;;;;11.40;10.40;;;15.50;99.90;;;;;;5055566;28;20268;-89
2022/10/14 00:06:40;;;;;;;11.52;10.43;;;15.50;99.90;;;;;;5057284;28;20240;-88
2022/10/14 00:09:08;;;;;;;12.80;11.43;;;15.40;99.90;;;;;;5048181;28;20206;-88
2022/10/14 00:11:36;;;;;;;17.75;11.43;;;15.50;99.90;;;;;;5055269;28;20237;-88
2022/10/14 00:14:09;;;;;;;11.57;10.38;;;15.60;99.90;;;;;;5057195;28;20232;-88
2022/10/14 00:16:38;;;;;;;11.98;10.88;;;15.60;99.90;;;;;;5054476;28;20192;-88
2022/10/14 00:19:04;;;;;;;13.38;11.98;;;15.60;99.90;;;;;;5053806;28;20203;-88
2022/10/14 00:21:31;;;;;;;11.73;10.50;;;15.50;99.90;;;;;;5053866;28;20219;-88
2022/10/14 00:23:57;;;;;;;12.53;11.17;;;15.50;99.90;;;;;;5051536;28;20286;-88
2022/10/14 00:26:31;;;;;;;11.80;10.67;;;15.50;99.90;;;;;;5063278;28;20197;-89
2022/10/14 00:28:59;;;;;;;11.35;10.35;;;15.60;99.90;;;;;;5051410;28;20206;-88
2022/10/14 00:31:25;;;;;;;14.02;12.60;;;15.60;99.90;;;;;;5056335;28;20216;-89
2022/10/14 00:33:51;;;;;;;11.90;10.85;;;15.40;99.90;;;;;;5055869;28;20207;-89
2022/10/14 00:36:19;;;;;;;14.27;11.70;;;15.30;99.90;;;;;;5056282;28;20711;-88
2022/10/14 00:38:44;;;;;;;12.23;11.23;;;15.20;99.90;;;;;;5055911;28;20199;-89
2022/10/14 00:41:18;;;;;;;12.40;11.10;;;15.10;99.90;;;;;;5054283;28;20213;-89
2022/10/14 00:44:25;;;;;;;12.53;11.40;;;15.10;99.90;;;;;;5055702;28;20241;-88
2022/10/14 00:46:51;;;;;;;12.03;10.83;;;15.10;99.90;;;;;;5054249;28;20318;-89
2022/10/14 00:49:49;;;;;;;12.47;11.10;;;15.00;99.90;;;;;;5055268;28;20208;-89
2022/10/14 00:52:17;;;;;;;12.53;11.23;;;14.90;99.90;;;;;;5022570;28;20216;-89
2022/10/14 00:54:48;;;;;;;13.40;12.03;;;14.80;99.90;;;;;;5055195;28;20192;-88
2022/10/14 00:57:15;;;;;;;11.77;10.70;;;14.70;99.90;;;;;;5042577;28;20188;-88
2022/10/14 00:59:41;;;;;;;12.90;11.27;;;14.80;99.90;;;;;;5056978;28;20199;-89
2022/10/14 01:02:07;;;;;;;12.27;11.07;;;14.60;99.90;;;;;;5055203;28;20209;-88
2022/10/14 01:04:36;;;;;;;12.87;10.50;;;14.70;99.90;;;;;;5057218;28;20285;-88
2022/10/14 01:07:16;;;;;;;14.70;10.90;;;14.50;99.90;;;;;;5056077;28;20251;-89
2022/10/14 01:09:51;;;;;;;12.90;11.53;;;14.50;99.90;;;;;;5054562;28;20235;-88
2022/10/14 01:12:22;;;;;;;17.00;11.07;;;14.50;99.90;;;;;;5054519;28;20208;-88
2022/10/14 01:15:13;;;;;;;12.67;11.27;;;14.40;99.90;;;;;;5048678;28;20173;-88
2022/10/14 01:18:08;;;;;;;11.73;10.67;;;14.30;99.90;;;;;;5051094;28;20209;-88
2022/10/14 01:20:46;;;;;;;12.20;10.67;;;14.30;99.90;;;;;;5026150;28;20204;-88
2022/10/14 01:24:00;;;;;;;11.63;10.43;;;14.40;99.90;;;;;;5054232;28;20207;-88
2022/10/14 01:26:39;;;;;;;14.60;11.20;;;14.40;99.90;;;;;;5043393;28;20192;-89
2022/10/14 01:29:12;;;;;;;11.63;10.20;;;14.50;99.90;;;;;;5056136;28;20219;-88
2022/10/14 01:31:44;;;;;;;10.73;8.97;;;14.50;99.90;;;;;;5054692;28;20239;-88
2022/10/14 01:34:14;;;;;;;10.10;9.07;;;14.60;99.90;;;;;;5049550;28;20201;-89
2022/10/14 01:36:56;;;;;;;11.40;10.30;;;14.70;99.90;;;;;;5056387;28;20710;-89
2022/10/14 01:39:30;;;;;;;11.47;10.37;;;14.80;99.90;;;;;;5046670;28;20239;-88
2022/10/14 01:42:14;;;;;;;10.87;9.97;;;14.80;99.90;;;;;;5053573;28;20187;-88
2022/10/14 01:44:45;;;;;;;10.17;9.27;;;14.80;99.90;;;;;;5055782;28;20268;-89
2022/10/14 01:47:15;;;;;;;10.77;9.70;;;15.00;99.90;;;;;;5055422;28;20178;-88
2022/10/14 01:49:51;;;;;;;10.70;9.67;;;15.00;99.90;;;;;;5051083;28;20295;-89
2022/10/14 01:52:26;;;;;;;9.23;8.40;;;15.00;99.90;;;;;;5054663;28;20262;-89
2022/10/14 01:54:58;;;;;;;10.47;9.57;;;15.10;99.90;;;;;;5052799;28;20621;-88
2022/10/14 01:57:28;;;;;;;10.10;9.13;;;15.10;99.90;;;;;;5049339;28;20773;-88
2022/10/14 01:59:55;;;;;;;9.73;8.93;;;15.00;99.90;;;;;;5054754;28;20178;-88
2022/10/14 02:02:23;;;;;;;10.37;9.33;;;15.00;99.90;;;;;;5051049;28;20222;-89
2022/10/14 02:04:49;;;;;;;11.23;9.50;;;15.00;99.90;;;;;;5039142;28;20198;-88
2022/10/14 02:07:40;;;;;;;10.80;9.73;;;15.10;99.90;;;;;;5055376;28;20202;-89
2022/10/14 02:10:11;;;;;;;9.57;8.47;;;15.10;99.90;;;;;;5047345;28;20216;-89
2022/10/14 02:12:55;;;;;;;11.18;10.02;;;15.00;99.90;;;;;;5052531;28;20213;-88
2022/10/14 02:15:32;;;;;;;10.23;9.33;;;15.00;99.90;;;;;;5052647;28;20186;-89
2022/10/14 02:18:19;;;;;;;11.60;10.40;;;15.00;99.90;;;;;;5052332;28;20204;-88
2022/10/14 02:20:59;;;;;;;12.67;10.57;;;14.80;99.90;;;;;;5049491;28;20189;-88
2022/10/14 02:23:34;;;;;;;11.10;10.07;;;14.70;99.90;;;;;;5052555;28;20212;-88
2022/10/14 02:26:01;;;;;;;11.27;10.30;;;14.60;99.90;;;;;;5052538;28;20195;-88
2022/10/14 02:28:30;;;;;;;10.60;9.70;;;14.60;99.90;;;;;;5050794;28;20879;-88
2022/10/14 02:31:07;;;;;;;10.07;9.07;;;14.50;99.90;;;;;;5051335;28;20189;-88
2022/10/14 02:33:38;;;;;;;10.13;8.63;;;14.50;99.90;;;;;;5049709;28;20202;-89
2022/10/14 02:36:06;;;;;;;10.93;8.93;;;14.70;99.90;;;;;;5050440;28;20201;-88
2022/10/14 02:38:33;;;;;;;10.33;9.50;;;14.90;99.90;;;;;;5053474;28;20838;-89
2022/10/14 02:41:03;;;;;;;10.07;9.13;;;15.00;99.90;;;;;;5053003;28;20216;-88
2022/10/14 02:43:29;;;;;;;9.10;8.20;;;14.90;99.90;;;;;;5050963;28;20222;-89
2022/10/14 02:46:00;;;;;;;9.57;8.20;;;14.90;99.90;;;;;;5053479;28;20662;-89
2022/10/14 02:48:26;;;;;;;9.57;8.60;;;15.00;99.90;;;;;;5053611;28;20227;-89
2022/10/14 02:50:51;;;;;;;9.13;8.30;;;15.00;99.90;;;;;;5059559;28;20671;-89
2022/10/14 02:53:17;;;;;;;9.53;8.10;;;15.00;99.90;;;;;;5053381;28;20212;-88
2022/10/14 02:55:43;;;;;;;9.03;8.17;;;15.00;99.90;;;;;;5054216;28;20186;-88
2022/10/14 02:58:08;;;;;;;9.27;8.32;;;15.00;99.90;;;;;;5046973;28;20203;-89
2022/10/14 03:00:34;;;;;;;11.03;8.83;;;15.00;99.90;;;;;;5055094;28;20613;-90
2022/10/14 03:03:00;;;;;;;9.63;8.60;;;15.10;99.90;;;;;;5053183;28;20213;-89
2022/10/14 03:05:26;;;;;;;10.90;9.50;;;15.10;99.90;;;;;;5051915;28;20684;-88
2022/10/14 03:07:52;;;;;;;9.30;8.30;;;15.00;99.90;;;;;;5052263;28;20220;-89
2022/10/14 03:10:17;;;;;;;9.47;8.57;;;15.00;99.90;;;;;;5055404;28;20200;-89
2022/10/14 03:12:43;;;;;;;10.17;9.00;;;15.10;99.90;;;;;;5055753;28;20288;-89
2022/10/14 03:15:09;;;;;;;9.23;8.43;;;15.10;99.90;;;;;;5055324;28;20545;-88
2022/10/14 03:17:36;;;;;;;8.60;7.80;;;15.10;99.90;;;;;;5070541;28;20197;-89
2022/10/14 03:20:03;;;;;;;12.33;9.07;;;15.00;99.90;;;;;;5073865;28;20215;-89
2022/10/14 03:22:29;;;;;;;9.45;8.50;;;15.10;99.90;;;;;;5055175;28;20197;-89
2022/10/14 03:24:55;;;;;;;9.27;8.37;;;15.10;99.90;;;;;;5053574;28;20598;-88
2022/10/14 03:27:21;;;;;;;8.75;7.93;;;15.00;99.90;;;;;;5052664;28;20193;-88
2022/10/14 03:29:46;;;;;;;17.37;15.77;;;14.90;99.90;;;;;;5053311;28;20206;-88
2022/10/14 03:32:12;;;;;;;12.80;11.70;;;15.00;99.90;;;;;;5052152;28;20247;-89
2022/10/14 03:34:38;;;;;;;9.97;9.07;;;15.10;99.90;;;;;;5052774;28;20764;-88
2022/10/14 03:37:04;;;;;;;8.77;7.87;;;15.00;99.90;;;;;;5053710;28;20181;-87
2022/10/14 03:39:29;;;;;;;9.03;8.23;;;15.00;99.90;;;;;;5051805;28;20186;-89
2022/10/14 03:41:55;;;;;;;9.17;7.63;;;15.00;99.90;;;;;;5045498;28;20196;-89
2022/10/14 03:44:21;;;;;;;8.93;8.07;;;15.00;99.90;;;;;;5052157;28;20197;-89
2022/10/14 03:46:46;;;;;;;8.40;7.70;;;15.00;99.90;;;;;;5051573;28;20197;-89
2022/10/14 03:49:12;;;;;;;8.23;7.40;;;15.00;99.90;;;;;;5052744;28;20242;-89
2022/10/14 03:51:38;;;;;;;7.90;7.20;;;15.00;99.90;;;;;;5049664;28;20733;-91
2022/10/14 03:54:04;;;;;;;8.13;7.43;;;15.00;99.90;;;;;;5056481;28;20266;-91
2022/10/14 03:56:29;;;;;;;8.37;7.53;;;14.90;99.90;;;;;;5050269;28;20825;-90
2022/10/14 03:58:55;;;;;;;8.43;7.63;;;14.90;99.90;;;;;;5053370;28;20665;-89
2022/10/14 04:01:21;;;;;;;8.03;7.27;;;14.90;99.90;;;;;;5053551;28;20198;-89
2022/10/14 04:03:47;;;;;;;9.03;8.10;;;14.90;99.90;;;;;;5030837;28;20210;-89
2022/10/14 04:06:13;;;;;;;7.70;7.00;;;14.90;99.90;;;;;;5058237;28;20184;-89
2022/10/14 04:08:39;;;;;;;7.97;7.27;;;14.90;99.90;;;;;;5058569;28;20230;-90
2022/10/14 04:11:05;;;;;;;8.27;7.45;;;14.90;99.90;;;;;;5057086;28;20193;-89
2022/10/14 04:13:31;;;;;;;8.27;7.57;;;14.80;99.90;;;;;;5058771;28;20202;-89
2022/10/14 04:16:02;;;;;;;7.33;6.63;;;14.80;99.90;;;;;;5057787;28;20186;-89
2022/10/14 04:18:28;;;;;;;7.70;7.00;;;14.80;99.90;;;;;;5051874;28;20184;-89
2022/10/14 04:20:54;;;;;;;7.83;7.13;;;14.70;99.90;;;;;;5034192;28;20192;-89
2022/10/14 04:23:19;;;;;;;8.20;7.40;;;14.60;99.90;;;;;;5044983;28;20277;-88
2022/10/14 04:25:45;;;;;;;9.87;7.70;;;14.70;99.90;;;;;;5057231;28;20196;-89
2022/10/14 04:28:11;;;;;;;9.53;7.63;;;14.60;99.90;;;;;;5057008;28;20222;-88
2022/10/14 04:30:37;;;;;;;8.20;6.83;;;14.50;99.90;;;;;;5057778;28;20223;-87
2022/10/14 04:33:02;;;;;;;9.17;7.47;;;14.50;99.90;;;;;;5057297;28;20284;-88
2022/10/14 04:35:28;;;;;;;8.03;7.23;;;14.40;99.90;;;;;;5064366;28;20277;-88
2022/10/14 04:37:54;;;;;;;8.03;7.10;;;14.40;99.90;;;;;;5059827;28;20199;-88
2022/10/14 04:40:24;;;;;;;8.07;6.93;;;14.30;99.90;;;;;;5065305;28;20622;-88
2022/10/14 04:42:53;;;;;;;7.77;7.07;;;14.40;99.90;;;;;;5057931;28;20214;-88
2022/10/14 04:45:18;;;;;;;10.60;7.70;;;14.30;99.90;;;;;;5057942;28;20197;-87
2022/10/14 04:47:44;;;;;;;10.57;7.77;;;14.30;99.90;;;;;;5051392;28;20201;-89
2022/10/14 04:50:10;;;;;;;9.77;7.33;;;14.40;99.90;;;;;;5054777;28;20181;-89
2022/10/14 04:52:35;;;;;;;9.17;8.20;;;14.50;99.90;;;;;;5061734;28;20327;-89
2022/10/14 04:55:02;;;;;;;8.17;7.30;;;14.40;99.90;;;;;;5061726;28;20544;-89
2022/10/14 04:57:28;;;;;;;9.47;6.93;;;14.30;99.90;;;;;;5061470;28;20179;-88
2022/10/14 04:59:53;;;;;;;9.97;6.67;;;14.40;99.90;;;;;;5052086;28;20187;-88
2022/10/14 05:02:19;;;;;;;7.77;6.97;;;14.40;99.90;;;;;;5057778;28;20207;-88
2022/10/14 05:04:45;;;;;;;7.90;7.30;;;14.40;99.90;;;;;;5060674;28;20196;-88
2022/10/14 05:07:11;;;;;;;7.50;6.80;;;14.40;99.90;;;;;;5059540;28;20315;-88
2022/10/14 05:09:37;;;;;;;8.30;6.57;;;14.40;99.90;;;;;;5059473;28;20222;-88
2022/10/14 05:12:03;;;;;;;8.20;7.50;;;14.50;99.90;;;;;;5063294;28;20199;-89
2022/10/14 05:14:28;;;;;;;7.30;6.70;;;14.40;99.90;;;;;;5068973;28;20656;-88
2022/10/14 05:16:54;;;;;;;7.20;6.67;;;14.40;99.90;;;;;;5061723;28;20196;-88
2022/10/14 05:19:20;;;;;;;7.07;6.47;;;14.40;99.90;;;;;;5060327;28;20552;-89
2022/10/14 05:21:45;;;;;;;10.23;6.40;;;14.40;99.90;;;;;;5061291;28;20318;-88
2022/10/14 05:24:11;;;;;;;7.30;6.50;;;14.40;99.90;;;;;;5059023;28;20203;-87
2022/10/14 05:26:37;;;;;;;8.37;6.97;;;14.40;99.90;;;;;;5055927;28;20199;-88
2022/10/14 05:29:03;;;;;;;9.07;7.23;;;14.40;99.90;;;;;;5055904;28;20212;-88
2022/10/14 05:31:29;;;;;;;7.80;7.03;;;14.40;99.90;;;;;;5061659;28;20222;-89
2022/10/14 05:33:54;;;;;;;7.83;7.03;;;14.40;99.90;;;;;;5065878;28;20212;-88
2022/10/14 05:36:20;;;;;;;10.43;7.40;;;14.40;99.90;;;;;;5047202;28;20194;-89
2022/10/14 05:38:46;;;;;;;9.83;7.23;;;14.40;99.90;;;;;;5039964;28;20605;-88
2022/10/14 05:41:11;;;;;;;7.93;6.53;;;14.40;99.90;;;;;;5037897;28;20196;-88
2022/10/14 05:43:37;;;;;;;8.37;7.57;;;14.30;99.90;;;;;;5045778;28;20211;-89
2022/10/14 05:46:03;;;;;;;7.63;6.53;;;14.30;99.90;;;;;;5044824;28;20274;-88
2022/10/14 05:48:29;;;;;;;7.90;7.10;;;14.20;99.90;;;;;;5046851;28;20213;-89
2022/10/14 05:50:55;;;;;;;8.97;6.47;;;14.20;99.90;;;;;;5050651;28;20180;-89
2022/10/14 05:53:20;;;;;;;9.23;7.10;;;14.30;99.90;;;;;;5048374;28;20566;-89
2022/10/14 05:55:46;;;;;;;7.33;6.40;;;14.30;99.90;;;;;;5043172;28;20219;-89
2022/10/14 05:58:12;;;;;;;7.43;6.70;;;14.20;99.90;;;;;;5047020;28;20188;-88
2022/10/14 06:00:37;;;;;;;11.97;10.13;;;14.20;99.90;;;;;;5050010;28;20195;-89
2022/10/14 06:03:03;;;;;;;12.60;11.50;;;14.30;99.90;;;;;;5047131;28;20269;-88
2022/10/14 06:05:29;;;;;;;10.17;8.93;;;14.30;99.90;;;;;;5046007;28;20223;-88
2022/10/14 06:07:55;;;;;;;14.33;12.93;;;14.30;99.90;;;;;;5049865;28;20214;-88
2022/10/14 06:10:21;;;;;;;12.33;11.03;;;14.30;99.90;;;;;;5046381;28;20181;-89
2022/10/14 06:12:47;;;;;;;12.77;10.63;;;14.40;99.90;;;;;;5054054;28;20258;-89
2022/10/14 06:15:12;;;;;;;7.87;7.17;;;14.50;99.90;;;;;;5051315;28;20188;-89
2022/10/14 06:17:38;;;;;;;7.37;6.27;;;14.50;99.90;;;;;;5050518;28;20208;-89
2022/10/14 06:20:04;;;;;;;6.97;5.77;;;14.50;99.90;;;;;;5048794;28;20195;-89
2022/10/14 06:22:30;;;;;;;7.33;6.63;;;14.50;99.90;;;;;;5045937;28;20271;-89
2022/10/14 06:24:56;;;;;;;6.53;6.03;;;14.60;99.90;;;;;;5052482;28;20601;-88
2022/10/14 06:27:21;;;;;;;8.30;6.97;;;14.60;99.90;;;;;;5049490;28;20269;-90
2022/10/14 06:29:47;;;;;;;8.67;7.77;;;14.60;99.90;;;;;;5048882;28;20973;-89
2022/10/14 06:32:13;;;;;;;10.00;7.43;;;14.50;99.90;;;;;;5052760;28;20200;-89
2022/10/14 06:34:39;;;;;;;8.53;7.10;;;14.50;99.90;;;;;;5057795;28;20175;-88
2022/10/14 06:37:04;;;;;;;9.17;6.73;;;14.70;99.90;;;;;;5069496;28;20660;-89
2022/10/14 06:39:30;;;;;;;7.37;6.57;;;14.70;99.90;;;;;;5060031;28;20194;-89
2022/10/14 06:41:56;;;;;;;8.03;7.13;;;14.80;99.90;;;;;;5043082;28;20191;-89
2022/10/14 06:44:22;;;;;;;9.77;6.97;;;14.80;99.90;;;;;;5057016;28;20183;-89
2022/10/14 06:46:48;;;;;;;7.80;7.00;;;14.90;99.90;;;;;;5064916;28;20203;-89
2022/10/14 06:49:14;;;;;;;6.30;5.80;;;15.00;99.90;;;;;;5062888;28;20221;-89
2022/10/14 06:51:39;;;;;;;8.67;7.00;;;15.00;99.90;;;;;;5056920;28;20220;-87
2022/10/14 06:54:06;;;;;;;8.43;7.63;;;15.10;99.90;;;;;;5049322;28;20223;-87
2022/10/14 06:56:33;;;;;;;7.70;6.80;;;15.10;99.90;;;;;;5049404;28;20189;-89
2022/10/14 06:58:59;;;;;;;7.67;6.87;;;15.20;99.90;;;;;;5052437;28;20202;-89
2022/10/14 07:01:24;;;;;;;8.63;7.60;;;15.20;99.90;;;;;;5052602;28;20197;-89
2022/10/14 07:03:50;;;;;;;8.53;7.73;;;15.20;99.90;;;;;;5055049;28;20237;-88
2022/10/14 07:06:16;;;;;;;8.20;7.27;;;15.10;99.90;;;;;;5044074;28;20675;-89
2022/10/14 07:08:42;;;;;;;8.03;7.33;;;15.20;99.90;;;;;;5048568;28;20216;-89
2022/10/14 07:11:08;;;;;;;10.30;9.20;;;15.20;99.90;;;;;;5050217;28;20187;-89
2022/10/14 07:13:34;;;;;;;9.53;8.63;;;15.20;99.90;;;;;;5046017;28;20270;-88
2022/10/14 07:15:59;;;;;;;9.40;8.47;;;15.30;99.90;;;;;;5054394;28;20181;-88
2022/10/14 07:18:25;;;;;;;11.60;9.47;;;15.20;99.90;;;;;;5043558;28;20219;-88
2022/10/14 07:20:52;;;;;;;10.27;9.20;;;15.20;99.90;;;;;;5055189;28;20199;-89
2022/10/14 07:23:18;;;;;;;13.50;10.27;;;15.10;99.90;;;;;;5050596;28;20209;-89
2022/10/14 07:25:43;;;;;;;10.03;8.77;;;15.10;99.90;;;;;;5055012;28;20188;-89
2022/10/14 07:28:09;;;;;;;11.03;8.67;;;15.10;99.90;;;;;;5058053;28;20216;-89
2022/10/14 07:30:35;;;;;;;10.57;9.47;;;15.20;99.90;;;;;;5055985;28;20479;-89
2022/10/14 07:33:01;;;;;;;10.43;9.33;;;15.30;99.90;;;;;;5055802;28;20200;-89
2022/10/14 07:35:27;;;;;;;10.10;8.57;;;15.40;99.90;;;;;;5054631;28;20564;-89
2022/10/14 07:37:53;;;;;;;10.07;8.77;;;15.40;99.90;;;;;;5054606;28;20237;-89
2022/10/14 07:40:19;;;;;;;9.23;7.77;;;15.50;99.90;;;;;;5030227;28;20195;-89
2022/10/14 07:42:45;;;;;;;9.47;8.50;;;15.50;99.90;;;;;;5052908;28;20240;-89
2022/10/14 07:45:15;;;;;;;7.80;7.10;;;15.50;99.90;;;;;;5052701;28;20190;-90
2022/10/14 07:47:42;;;;;;;8.50;7.60;;;15.60;99.90;;;;;;5053419;28;20241;-89
2022/10/14 07:50:09;;;;;;;10.63;9.43;;;15.60;99.90;;;;;;5053017;28;20182;-89
2022/10/14 07:52:35;;;;;;;10.60;8.97;;;15.70;99.90;;;;;;5052509;28;20207;-88
2022/10/14 07:55:01;;;;;;;10.32;9.25;;;15.80;99.90;;;;;;5052309;28;20269;-89
2022/10/14 07:57:27;;;;;;;11.82;9.18;;;15.80;99.90;;;;;;5052088;28;20214;-88
2022/10/14 07:59:53;;;;;;;13.32;10.25;;;15.70;99.90;;;;;;5048098;28;20197;-89
2022/10/14 08:02:19;;;;;;;10.30;8.93;;;15.60;99.90;;;;;;5049255;28;20229;-89
2022/10/14 08:04:45;;;;;;;10.05;9.15;;;15.50;99.90;;;;;;5051413;28;20418;-89
2022/10/14 08:07:13;;;;;;;10.00;9.10;;;15.70;99.90;;;;;;5049793;28;20770;-89
2022/10/14 08:09:39;;;;;;;9.60;8.80;;;15.90;99.90;;;;;;5053372;28;20209;-89
2022/10/14 08:12:05;;;;;;;10.77;9.77;;;16.00;99.90;;;;;;5053406;28;20195;-89
2022/10/14 08:14:31;;;;;;;10.13;9.07;;;16.00;99.90;;;;;;5053565;28;20246;-89
2022/10/14 08:16:57;;;;;;;10.00;9.00;;;16.10;99.90;;;;;;5052355;28;20644;-89
2022/10/14 08:19:22;;;;;;;12.18;9.25;;;16.20;99.90;;;;;;5048867;28;20217;-88
2022/10/14 08:21:48;;;;;;;11.10;8.68;;;16.10;99.90;;;;;;5054554;28;20196;-89
2022/10/14 08:24:14;;;;;;;13.75;9.50;;;16.30;99.90;;;;;;5052998;28;20190;-89
2022/10/14 08:26:49;;;;;;;9.60;8.60;;;16.20;99.90;;;;;;5044533;28;20207;-89
2022/10/14 08:29:14;;;;;;;9.90;8.90;;;16.10;99.90;;;;;;5043946;28;20248;-89
2022/10/14 08:31:40;;;;;;;9.90;9.00;;;16.20;99.90;;;;;;5054205;28;20188;-89
2022/10/14 08:34:06;;;;;;;11.15;9.68;;;16.00;99.90;;;;;;5054813;28;20806;-87
2022/10/14 08:36:32;;;;;;;10.43;8.90;;;16.00;99.90;;;;;;5053143;28;20264;-89
2022/10/14 08:38:57;;;;;;;9.50;8.60;;;16.20;99.90;;;;;;5054365;28;20248;-88
2022/10/14 08:41:38;;;;;;;11.02;9.13;;;16.40;99.90;;;;;;5054969;28;20206;-89
2022/10/14 08:44:16;;;;;;;10.55;9.60;;;16.30;99.90;;;;;;5052799;28;20249;-89
2022/10/14 08:46:48;;;;;;;9.93;8.93;;;16.50;99.90;;;;;;5054697;28;20588;-90
2022/10/14 08:49:21;;;;;;;9.23;7.90;;;16.70;99.90;;;;;;5056279;28;20227;-90
2022/10/14 08:52:01;;;;;;;10.80;9.38;;;16.60;99.90;;;;;;5058067;28;20186;-90
2022/10/14 08:54:37;;;;;;;10.60;9.43;;;16.50;99.90;;;;;;5053669;28;20604;-89
2022/10/14 08:57:04;;;;;;;10.30;9.30;;;16.20;99.90;;;;;;5060336;28;20687;-89
2022/10/14 08:59:36;;;;;;;9.80;8.43;;;16.40;99.90;;;;;;5056239;28;20191;-89
2022/10/14 09:02:17;;;;;;;9.27;7.25;;;16.50;99.90;;;;;;5055988;28;20195;-90
2022/10/14 09:04:43;;;;;;;8.55;7.75;;;16.50;97.90;;;;;;5053654;28;20214;-90
2022/10/14 09:07:15;;;;;;;8.68;7.80;;;16.70;96.70;;;;;;5056782;28;20222;-90
2022/10/14 09:09:44;;;;;;;8.65;7.85;;;16.80;97.80;;;;;;5057359;28;20207;-91
2022/10/14 09:12:17;;;;;;;8.80;8.07;;;16.90;97.40;;;;;;5052785;28;20203;-90
2022/10/14 09:15:11;;;;;;;8.98;8.05;;;17.10;95.60;;;;;;5058286;28;20180;-90
2022/10/14 09:18:01;;;;;;;10.75;7.85;;;17.20;95.00;;;;;;5051849;28;20203;-90
2022/10/14 09:20:27;;;;;;;8.80;7.93;;;17.20;95.30;;;;;;5021314;28;20579;-89
2022/10/14 09:23:18;;;;;;;9.90;7.63;;;17.30;94.90;;;;;;5051520;28;20232;-89
2022/10/14 09:25:53;;;;;;;8.93;8.07;;;17.40;94.70;;;;;;5058097;28;20196;-90
2022/10/14 09:28:20;;;;;;;9.13;8.25;;;17.40;94.70;;;;;;5055619;28;20234;-90
2022/10/14 09:30:45;;;;;;;8.82;7.82;;;17.20;95.60;;;;;;5054842;28;20252;-90
2022/10/14 09:33:19;;;;;;;10.65;7.80;;;17.00;95.90;;;;;;5055661;28;20239;-91
2022/10/14 09:35:46;;;;;;;8.02;7.32;;;17.00;97.30;;;;;;5051772;28;20176;-90
2022/10/14 09:38:13;;;;;;;8.63;7.80;;;17.00;97.10;;;;;;5057186;28;20767;-89
2022/10/14 09:40:48;;;;;;;9.73;7.63;;;16.90;98.50;;;;;;5057411;28;20199;-88
2022/10/14 09:43:22;;;;;;;8.75;7.85;;;16.80;98.10;;;;;;5060577;28;20207;-88
2022/10/14 09:45:56;;;;;;;7.85;7.10;;;16.70;98.30;;;;;;5059249;28;20195;-89
2022/10/14 09:48:31;;;;;;;9.55;8.20;;;16.60;99.10;;;;;;5052861;28;20211;-89
2022/10/14 09:51:02;;;;;;;8.38;7.65;;;16.70;99.60;;;;;;5057904;28;20682;-89
2022/10/14 09:53:41;;;;;;;8.50;7.55;;;17.00;98.20;;;;;;5055894;28;20302;-88
2022/10/14 09:56:09;;;;;;;8.38;7.50;;;17.10;97.60;;;;;;5056436;28;20262;-88
2022/10/14 09:58:44;;;;;;;9.65;7.50;;;17.10;98.40;;;;;;5054571;28;20176;-89
2022/10/14 10:01:21;;;;;;;8.80;7.63;;;17.20;97.80;;;;;;5055550;28;20234;-89
2022/10/14 10:03:49;;;;;;;9.32;7.03;;;17.20;97.70;;;;;;5051470;28;20288;-88
2022/10/14 10:06:19;;;;;;;8.15;7.32;;;17.10;99.50;;;;;;5055925;28;20679;-89
2022/10/14 10:08:55;;;;;;;10.07;7.43;;;17.30;97.70;;;;;;5053245;28;20214;-89
2022/10/14 10:11:36;;;;;;;8.10;7.40;;;17.20;99.60;;;;;;5054028;28;20182;-90
2022/10/14 10:14:29;;;;;;;10.23;8.20;;;17.00;99.90;;;;;;5066739;28;20194;-91
2022/10/14 10:17:07;;;;;;;8.90;8.10;;;16.70;99.90;;;;;;5069451;28;20208;-90
2022/10/14 10:19:47;;;;;;;9.30;8.13;;;16.40;99.90;;;;;;5057357;28;20184;-90
2022/10/14 10:22:18;;;;;;;8.57;7.73;;;16.50;99.90;;;;;;5051463;28;20211;-90
2022/10/14 10:25:00;;;;;;;10.53;7.43;;;16.50;99.90;;;;;;5053095;28;20189;-90
2022/10/14 10:27:27;;;;;;;6.63;6.00;;;16.50;99.90;;;;;;5050907;28;20206;-90
2022/10/14 10:29:55;;;;;;;8.27;6.40;;;16.30;99.90;;;;;;5052380;28;20201;-90
2022/10/14 10:32:41;;;;;;;11.27;8.57;;;16.20;99.90;;;;;;5054787;28;20296;-90
2022/10/14 10:35:07;;;;;;;6.53;5.80;;;16.20;99.90;;;;;;5053890;28;20183;-89
2022/10/14 10:37:51;;;;;;;6.93;6.30;;;16.10;99.90;;;;;;5064118;28;20232;-90
2022/10/14 10:40:20;;;;;;;8.03;6.10;;;16.20;99.90;;;;;;5073790;28;20180;-88
2022/10/14 10:42:58;;;;;;;6.53;5.90;;;16.40;99.90;;;;;;5082868;28;20290;-89
2022/10/14 10:45:52;;;;;;;6.97;6.37;;;16.60;99.90;;;;;;5063990;28;20271;-89
2022/10/14 10:48:26;;;;;;;6.90;6.30;;;16.60;99.90;;;;;;5052228;28;20209;-90
2022/10/14 10:51:01;;;;;;;7.13;6.23;;;16.50;99.90;;;;;;5055081;28;20632;-89
2022/10/14 10:53:39;;;;;;;6.75;6.15;;;16.70;99.90;;;;;;5049855;28;20217;-90
2022/10/14 10:56:25;;;;;;;6.90;6.30;;;16.80;99.90;;;;;;5052261;28;20288;-90
2022/10/14 10:59:29;;;;;;;6.20;5.65;;;16.90;99.90;;;;;;5049949;28;20197;-90
2022/10/14 11:01:54;;;;;;;6.75;5.18;;;16.90;99.90;;;;;;5067516;28;20204;-89
2022/10/14 11:04:44;;;;;;;6.13;5.53;;;16.90;99.90;;;;;;5053396;28;20713;-89
2022/10/14 11:13:10;;;;;;;8.07;4.90;;;17.10;99.90;;;;;;5048205;28;20220;-89
2022/10/14 11:16:06;;;;;;;5.40;4.90;;;17.10;99.90;;;;;;5052863;28;20193;-89
2022/10/14 11:18:56;;;;;;;5.72;5.22;;;17.20;99.90;;;;;;5046259;28;20220;-88
2022/10/14 11:21:52;;;;;;;6.97;5.00;;;17.20;99.90;;;;;;5051866;28;20674;-89
2022/10/14 11:24:53;;;;;;;5.65;5.10;;;17.30;99.90;;;;;;5051206;28;20199;-89
2022/10/14 11:27:21;;;;;;;7.28;4.68;;;17.70;99.90;;;;;;4993697;28;20206;-88
2022/10/14 11:30:08;;;;;;;5.15;4.50;;;17.50;99.90;;;;;;5056096;28;21031;-89
2022/10/14 11:33:07;;;;;;;6.72;5.10;;;17.60;99.90;;;;;;5049206;28;20213;-89
2022/10/14 11:35:51;;;;;;;5.60;4.60;;;17.80;99.90;;;;;;5004942;28;20189;-92
2022/10/14 11:38:58;;;;;;;6.55;4.70;;;17.80;99.90;;;;;;5056438;28;20190;-91
2022/10/14 11:41:30;;;;;;;5.60;4.63;;;17.70;99.90;;;;;;5051430;28;20227;-91
2022/10/14 11:44:14;;;;;;;5.25;4.75;;;17.60;99.90;;;;;;5057195;28;20577;-92
2022/10/14 11:46:45;;;;;;;5.95;4.55;;;17.60;99.90;;;;;;5053463;28;20191;-91
2022/10/14 11:49:24;;;;;;;5.28;4.78;;;18.00;99.90;;;;;;5050135;28;23484;-90
2022/10/14 11:52:06;;;;;;;5.57;4.65;;;18.00;99.90;;;;;;5052587;28;20194;-91
2022/10/14 11:54:39;;;;;;;5.60;4.25;;;17.90;99.90;;;;;;5053064;28;20208;-90
2022/10/14 11:57:11;;;;;;;4.80;4.35;;;17.90;99.90;;;;;;5070275;28;20195;-91
2022/10/14 12:00:14;;;;;;;5.78;5.18;;;18.00;99.90;;;;;;5046822;28;20198;-91
2022/10/14 12:03:11;;;;;;;5.05;4.55;;;17.90;99.90;;;;;;5065839;28;20211;-91
2022/10/14 12:05:49;;;;;;;8.02;4.53;;;17.80;99.90;;;;;;5049521;28;20213;-91
2022/10/14 12:08:25;;;;;;;9.15;4.78;;;17.80;99.90;;;;;;5059983;28;20211;-91
2022/10/14 12:11:04;;;;;;;6.80;4.60;;;18.00;99.90;;;;;;5054316;28;20203;-90
2022/10/14 12:13:40;;;;;;;7.40;4.30;;;17.90;99.90;;;;;;5056859;28;20209;-91
2022/10/14 12:16:14;;;;;;;5.47;4.32;;;18.00;99.90;;;;;;5047588;28;20242;-90
2022/10/14 12:18:43;;;;;;;5.35;4.50;;;18.20;99.90;;;;;;5053086;28;20334;-91
2022/10/14 12:21:42;;;;;;;4.75;4.35;;;18.20;99.90;;;;;;5051796;28;20184;-91
2022/10/14 12:24:13;;;;;;;5.90;4.60;;;18.40;99.10;;;;;;5055946;28;20317;-90
2022/10/14 12:26:50;;;;;;;7.32;4.40;;;18.40;99.90;;;;;;5051460;28;20824;-90
2022/10/14 12:29:20;;;;;;;6.80;4.03;;;18.50;99.70;;;;;;5056688;28;20250;-90
2022/10/14 12:32:13;;;;;;;5.15;4.60;;;18.50;98.30;;;;;;5050594;28;20717;-89
2022/10/14 12:34:41;;;;;;;6.20;4.20;;;18.50;99.50;;;;;;5050552;28;20208;-89
2022/10/14 12:37:36;;;;;;;5.15;4.40;;;18.70;97.80;;;;;;5047828;28;20183;-90
2022/10/14 12:40:05;;;;;;;4.57;4.10;;;18.50;99.90;;;;;;5039607;28;20185;-89
2022/10/14 12:42:50;;;;;;;5.00;4.47;;;18.30;99.80;;;;;;5054366;28;20216;-90
2022/10/14 12:45:25;;;;;;;4.28;3.97;;;18.30;99.90;;;;;;5046533;28;20196;-89
2022/10/14 12:48:26;;;;;;;5.25;4.20;;;18.90;96.90;;;;;;5053704;28;20262;-89
2022/10/14 12:51:13;;;;;;;5.28;4.20;;;19.20;95.00;;;;;;5053915;28;20410;-89
2022/10/14 12:53:47;;;;;;;4.80;4.38;;;19.00;96.00;;;;;;5053835;28;20216;-90
2022/10/14 12:56:29;;;;;;;4.90;4.28;;;18.70;96.20;;;;;;5050842;28;20241;-90
2022/10/14 12:59:04;;;;;;;5.65;4.25;;;18.50;97.90;;;;;;5054928;28;20194;-89
2022/10/14 13:01:30;;;;;;;5.13;4.63;;;18.50;98.40;;;;;;5044813;28;20191;-90
2022/10/14 13:04:03;;;;;;;6.47;4.22;;;18.60;97.30;;;;;;5054916;28;20218;-90
2022/10/14 13:06:38;;;;;;;6.40;4.10;;;18.40;98.00;;;;;;5050197;28;20205;-89
2022/10/14 13:09:16;;;;;;;6.05;4.22;;;18.40;97.80;;;;;;5053063;28;20201;-89